Terminal Aerodrome Forecast
Issued by NWS Amarillo, TX

Home | Current Version | Previous Version | Text Only | Print | Product List | Glossary On
Versions: 1 2 3 4 5 6 7 8 9 10 11 12 13 14 15 16 17 18 19 20 21 22 23 24 25
000
FTUS44 KAMA 010500
TAFAMA
TAF
KAMA 010522Z 0106/0206 15008KT 1SM BR OVC002
     FM011000 16008KT 1/2SM FZFG OVC002
     FM011600 17008KT 2SM BR OVC005
     FM011900 15008KT 5SM BR OVC010
     FM020200 06008KT 1SM BR OVC002=

USA.gov is the U.S. government's official web portal to all federal, state and local government web resources and services.